createdAt,value
2019-03-26T00:01:25.285Z,1.06
2019-03-26T00:03:30.740Z,1.05
2019-03-26T00:05:36.245Z,1.02
2019-03-26T00:07:40.672Z,0.99
2019-03-26T00:09:45.006Z,1.00
2019-03-26T00:11:49.345Z,0.97
2019-03-26T00:13:53.674Z,0.92
2019-03-26T00:15:58.133Z,0.91
2019-03-26T00:18:03.583Z,0.88
2019-03-26T00:20:08.111Z,0.89
2019-03-26T00:22:12.452Z,0.88
2019-03-26T00:24:16.769Z,0.83
2019-03-26T00:26:21.071Z,0.78
2019-03-26T00:28:26.588Z,0.76
2019-03-26T00:30:31.016Z,0.75
2019-03-26T00:32:35.413Z,0.73
2019-03-26T00:34:40.818Z,0.73
2019-03-26T00:36:45.196Z,0.72
2019-03-26T00:38:49.650Z,0.71
2019-03-26T00:40:54.036Z,0.70
2019-03-26T00:42:58.467Z,0.69
2019-03-26T00:45:02.832Z,0.70
2019-03-26T00:47:07.316Z,0.68
2019-03-26T00:49:12.712Z,0.61
2019-03-26T00:51:17.051Z,0.56
2019-03-26T00:53:21.430Z,0.54
2019-03-26T00:55:25.826Z,0.52
2019-03-26T00:57:30.181Z,0.53
2019-03-26T00:59:34.514Z,0.55
2019-03-26T01:01:38.901Z,0.54
2019-03-26T01:03:43.370Z,0.54
2019-03-26T01:05:47.755Z,0.55
2019-03-26T01:07:53.194Z,0.57
2019-03-26T01:09:57.521Z,0.55
2019-03-26T01:12:01.879Z,0.57
2019-03-26T01:14:08.299Z,0.61
2019-03-26T01:16:12.643Z,0.60
2019-03-26T01:18:18.039Z,0.51
2019-03-26T01:20:22.446Z,0.47
2019-03-26T01:22:26.869Z,0.43
2019-03-26T01:24:31.217Z,0.41
2019-03-26T01:26:35.608Z,0.40
2019-03-26T01:28:39.945Z,0.39
2019-03-26T01:30:45.346Z,0.38
2019-03-26T01:32:49.755Z,0.33
2019-03-26T01:34:54.102Z,0.29
2019-03-26T01:36:59.556Z,0.26
2019-03-26T01:39:05.185Z,0.23
2019-03-26T01:41:09.529Z,0.19
2019-03-26T01:43:13.949Z,0.15
2019-03-26T01:45:20.394Z,0.12
2019-03-26T01:47:25.821Z,0.09
2019-03-26T01:49:30.198Z,0.05
2019-03-26T01:51:34.482Z,0.01
2019-03-26T01:53:39.804Z,0.00
2019-03-26T01:55:44.098Z,-0.03
2019-03-26T01:57:48.589Z,-0.03
2019-03-26T01:59:53.035Z,-0.07
2019-03-26T02:01:57.388Z,-0.09
2019-03-26T02:04:01.722Z,-0.13
2019-03-26T02:06:11.985Z,-0.15
2019-03-26T02:08:16.381Z,-0.19
2019-03-26T02:10:21.774Z,-0.21
2019-03-26T02:12:26.185Z,-0.24
2019-03-26T02:14:30.707Z,-0.24
2019-03-26T02:16:35.144Z,-0.15
2019-03-26T02:18:39.479Z,-0.06
2019-03-26T02:20:43.812Z,0.04
2019-03-26T02:22:48.110Z,0.15
2019-03-26T02:24:52.891Z,0.24
2019-03-26T02:26:57.357Z,0.34
2019-03-26T02:29:01.683Z,0.43
2019-03-26T02:31:06.010Z,0.50
2019-03-26T02:33:10.298Z,0.61
2019-03-26T02:35:18.101Z,0.71
2019-03-26T02:37:20.689Z,0.78
2019-03-26T02:39:25.023Z,0.85
2019-03-26T02:41:30.235Z,0.90
2019-03-26T02:43:34.576Z,0.95
2019-03-26T02:45:41.966Z,0.96
2019-03-26T02:47:46.403Z,0.97
2019-03-26T02:49:50.793Z,0.99
2019-03-26T02:51:55.287Z,1.05
2019-03-26T02:53:59.629Z,1.10
2019-03-26T02:56:03.919Z,1.16
2019-03-26T02:58:08.372Z,1.21
2019-03-26T03:00:13.256Z,1.26
2019-03-26T03:02:17.570Z,1.29
2019-03-26T03:04:21.930Z,1.35
2019-03-26T03:06:26.459Z,1.41
2019-03-26T03:08:31.761Z,1.47
2019-03-26T03:10:37.224Z,1.52
2019-03-26T03:12:42.510Z,1.57
2019-03-26T03:14:47.894Z,1.58
2019-03-26T03:16:54.260Z,1.58
2019-03-26T03:18:58.692Z,1.56
2019-03-26T03:21:03.248Z,1.57
2019-03-26T03:23:07.609Z,1.57
2019-03-26T03:25:13.158Z,1.60
2019-03-26T03:27:18.496Z,1.63
2019-03-26T03:29:24.820Z,1.65
2019-03-26T03:31:29.212Z,1.68
2019-03-26T03:33:33.560Z,1.72
2019-03-26T03:35:51.410Z,1.75
2019-03-26T03:37:44.086Z,1.76
2019-03-26T03:39:48.515Z,1.77
2019-03-26T03:41:52.890Z,1.79
2019-03-26T03:43:57.207Z,1.80
2019-03-26T03:46:01.782Z,1.83
2019-03-26T03:48:07.508Z,1.87
2019-03-26T03:50:12.426Z,1.89
2019-03-26T03:52:17.806Z,1.91
2019-03-26T03:54:23.664Z,1.90
2019-03-26T03:56:29.690Z,1.90
2019-03-26T03:58:36.333Z,1.94
2019-03-26T04:00:41.262Z,1.95
2019-03-26T04:02:45.681Z,1.96
2019-03-26T04:04:49.993Z,1.96
2019-03-26T04:06:54.470Z,1.95
2019-03-26T04:08:58.809Z,1.97
2019-03-26T04:11:04.487Z,1.98
2019-03-26T04:13:09.010Z,1.98
2019-03-26T04:15:13.465Z,2.01
2019-03-26T04:17:17.839Z,2.02
2019-03-26T04:19:22.212Z,2.03
2019-03-26T04:21:26.568Z,2.03
2019-03-26T04:23:30.928Z,2.02
2019-03-26T04:25:35.424Z,2.01
2019-03-26T04:27:39.784Z,2.04
2019-03-26T04:29:44.080Z,2.07
2019-03-26T04:31:48.438Z,2.07
2019-03-26T04:33:52.987Z,2.08
2019-03-26T04:35:57.368Z,2.09
2019-03-26T04:38:01.755Z,2.11
2019-03-26T04:40:06.195Z,2.12
2019-03-26T04:42:10.575Z,2.13
2019-03-26T04:44:14.922Z,2.15
2019-03-26T04:46:19.230Z,2.16
2019-03-26T04:48:23.540Z,2.17
2019-03-26T04:50:27.841Z,2.16
2019-03-26T04:52:33.250Z,2.15
2019-03-26T04:54:37.591Z,2.16
2019-03-26T04:56:41.927Z,2.15
2019-03-26T04:58:46.263Z,2.15
2019-03-26T05:00:51.573Z,2.14
2019-03-26T05:02:55.903Z,2.12
2019-03-26T05:05:00.306Z,2.11
2019-03-26T05:07:05.939Z,2.13
2019-03-26T05:09:11.311Z,2.14
2019-03-26T05:11:15.685Z,2.16
2019-03-26T05:13:20.045Z,2.14
2019-03-26T05:15:26.406Z,2.16
2019-03-26T05:17:30.802Z,2.18
2019-03-26T05:19:35.104Z,2.19
2019-03-26T05:21:40.536Z,2.20
2019-03-26T05:23:44.890Z,2.20
2019-03-26T05:25:49.222Z,2.22
2019-03-26T05:27:57.988Z,2.25
2019-03-26T05:30:03.656Z,2.26
2019-03-26T05:32:08.049Z,2.27
2019-03-26T05:34:12.391Z,2.29
2019-03-26T05:36:16.713Z,2.33
2019-03-26T05:38:22.047Z,2.33
2019-03-26T05:40:26.350Z,2.34
2019-03-26T05:42:30.700Z,2.35
2019-03-26T05:44:36.017Z,2.35
2019-03-26T05:46:40.307Z,2.38
2019-03-26T05:48:44.649Z,2.40
2019-03-26T05:50:51.004Z,2.41
2019-03-26T05:52:55.391Z,2.43
2019-03-26T05:54:59.744Z,2.46
2019-03-26T05:57:04.237Z,2.50
2019-03-26T05:59:08.560Z,2.51
2019-03-26T06:01:12.883Z,2.54
2019-03-26T06:03:17.235Z,2.56
2019-03-26T06:05:21.833Z,2.61
2019-03-26T06:07:27.144Z,2.65
2019-03-26T06:09:31.561Z,2.69
2019-03-26T06:11:35.912Z,2.73
2019-03-26T06:13:40.216Z,2.77
2019-03-26T06:15:44.583Z,2.81
2019-03-26T06:17:49.024Z,2.84
2019-03-26T06:19:53.379Z,2.92
2019-03-26T06:21:57.688Z,2.97
2019-03-26T06:24:02.117Z,3.04
2019-03-26T06:26:06.524Z,3.14
2019-03-26T06:28:10.820Z,3.27
2019-03-26T06:30:15.676Z,3.40
2019-03-26T06:32:20.006Z,3.65
2019-03-26T06:34:24.407Z,3.96
2019-03-26T06:36:28.851Z,4.13
2019-03-26T06:38:33.228Z,4.22
2019-03-26T06:40:38.550Z,4.23
2019-03-26T06:42:43.126Z,4.25
2019-03-26T06:44:47.567Z,4.25
2019-03-26T06:46:51.941Z,4.23
2019-03-26T06:48:56.247Z,4.26
2019-03-26T06:51:00.637Z,4.30
2019-03-26T06:53:04.950Z,4.34
2019-03-26T06:55:09.720Z,4.36
2019-03-26T06:57:14.213Z,4.37
2019-03-26T06:59:18.514Z,4.44
2019-03-26T07:01:22.951Z,4.50
2019-03-26T07:03:27.406Z,4.60
2019-03-26T07:05:31.833Z,4.71
2019-03-26T07:07:36.302Z,4.83
2019-03-26T07:09:42.906Z,4.94
2019-03-26T07:11:47.280Z,5.08
2019-03-26T07:13:51.593Z,5.18
2019-03-26T07:15:55.968Z,5.28
2019-03-26T07:18:00.346Z,5.38
2019-03-26T07:20:05.151Z,5.48
2019-03-26T07:22:10.532Z,5.67
2019-03-26T07:24:15.087Z,6.09
2019-03-26T07:26:19.585Z,6.36
2019-03-26T07:28:24.007Z,6.38
2019-03-26T07:30:47.090Z,6.40
2019-03-26T07:32:51.409Z,6.42
2019-03-26T07:34:55.737Z,6.42
2019-03-26T07:37:00.054Z,6.42
2019-03-26T07:39:06.999Z,6.45
2019-03-26T07:41:12.455Z,6.45
2019-03-26T07:43:16.765Z,6.42
2019-03-26T07:45:21.183Z,6.42
2019-03-26T07:47:25.502Z,6.41
2019-03-26T07:49:29.822Z,6.35
2019-03-26T07:51:35.191Z,6.31
2019-03-26T07:53:39.488Z,6.30
2019-03-26T07:55:44.173Z,6.32
2019-03-26T07:57:48.407Z,6.35
2019-03-26T07:59:52.721Z,6.45
2019-03-26T08:01:58.162Z,6.55
2019-03-26T08:04:02.569Z,6.71
2019-03-26T08:06:06.915Z,6.91
2019-03-26T08:08:11.297Z,7.16
2019-03-26T08:10:15.728Z,7.47
2019-03-26T08:12:20.154Z,7.81
2019-03-26T08:14:24.496Z,8.13
2019-03-26T08:16:28.818Z,8.46
2019-03-26T08:18:34.157Z,8.82
2019-03-26T08:20:38.438Z,9.44
2019-03-26T08:22:44.942Z,9.71
2019-03-26T08:24:51.386Z,10.17
2019-03-26T08:26:56.713Z,10.57
2019-03-26T08:29:01.174Z,11.05
2019-03-26T08:31:06.546Z,12.61
2019-03-26T08:33:10.880Z,13.57
2019-03-26T08:35:15.546Z,14.01
2019-03-26T08:37:19.927Z,14.56
2019-03-26T08:39:24.234Z,15.81
2019-03-26T08:41:28.570Z,16.65
2019-03-26T08:43:32.871Z,16.01
2019-03-26T08:45:37.181Z,15.19
2019-03-26T08:47:41.493Z,14.44
2019-03-26T08:49:46.833Z,13.70
2019-03-26T08:51:51.185Z,13.22
2019-03-26T08:53:57.541Z,13.07
2019-03-26T08:56:01.855Z,14.18
2019-03-26T08:58:06.223Z,14.16
2019-03-26T09:00:11.959Z,13.52
2019-03-26T09:02:16.353Z,12.81
2019-03-26T09:04:21.639Z,12.16
2019-03-26T09:06:26.115Z,11.75
2019-03-26T09:08:30.496Z,11.60
2019-03-26T09:10:34.794Z,11.60
2019-03-26T09:12:39.759Z,11.67
2019-03-26T09:14:44.281Z,11.89
2019-03-26T09:16:48.668Z,11.95
2019-03-26T09:18:53.108Z,11.94
2019-03-26T09:20:57.439Z,11.91
2019-03-26T09:23:01.723Z,11.84
2019-03-26T09:25:06.851Z,11.77
2019-03-26T09:27:11.184Z,11.67
2019-03-26T09:29:15.477Z,11.65
2019-03-26T09:31:19.789Z,11.64
2019-03-26T09:33:24.132Z,11.63
2019-03-26T09:35:30.463Z,11.43
2019-03-26T09:37:34.799Z,11.21
2019-03-26T09:39:40.119Z,10.95
2019-03-26T09:41:44.457Z,10.78
2019-03-26T09:43:49.840Z,10.61
2019-03-26T09:45:54.192Z,10.47
2019-03-26T09:47:58.518Z,10.41
2019-03-26T09:50:02.920Z,10.45
2019-03-26T09:52:07.256Z,10.55
2019-03-26T09:54:11.645Z,11.46
2019-03-26T09:56:27.908Z,12.18
2019-03-26T09:58:22.115Z,12.17
2019-03-26T10:00:26.421Z,12.00
2019-03-26T10:02:30.753Z,11.92
2019-03-26T10:04:35.141Z,11.86
2019-03-26T10:06:39.492Z,11.80
2019-03-26T10:08:52.187Z,11.78
2019-03-26T10:10:53.144Z,11.76
2019-03-26T10:12:57.459Z,11.65
2019-03-26T10:15:01.772Z,11.57
2019-03-26T10:17:08.225Z,11.57
2019-03-26T10:19:12.539Z,11.52
2019-03-26T10:21:16.957Z,11.45
2019-03-26T10:23:21.295Z,11.52
2019-03-26T10:25:25.683Z,11.59
2019-03-26T10:27:30.006Z,11.65
2019-03-26T10:29:34.329Z,11.70
2019-03-26T10:31:38.734Z,11.63
2019-03-26T10:33:43.089Z,11.44
2019-03-26T10:35:47.399Z,11.23
2019-03-26T10:37:51.699Z,11.13
2019-03-26T10:39:58.063Z,11.13
2019-03-26T10:42:02.411Z,11.21
2019-03-26T10:44:06.690Z,11.35
2019-03-26T10:46:11.056Z,11.71
2019-03-26T10:48:15.438Z,12.07
2019-03-26T10:50:19.726Z,12.16
2019-03-26T10:52:26.092Z,12.18
2019-03-26T10:54:31.442Z,12.30
2019-03-26T10:56:35.826Z,12.42
2019-03-26T10:58:41.283Z,12.31
2019-03-26T11:00:45.711Z,12.10
2019-03-26T11:02:50.041Z,11.84
2019-03-26T11:04:55.464Z,11.43
2019-03-26T11:06:59.795Z,11.13
2019-03-26T11:09:19.892Z,11.00
2019-03-26T11:11:13.726Z,10.80
2019-03-26T11:13:19.134Z,10.62
2019-03-26T11:15:23.406Z,10.53
2019-03-26T11:17:27.703Z,10.53
2019-03-26T11:19:32.010Z,10.55
2019-03-26T11:21:36.369Z,10.60
2019-03-26T11:23:41.667Z,10.67
2019-03-26T11:25:46.060Z,10.74
2019-03-26T11:27:50.409Z,10.88
2019-03-26T11:29:54.796Z,10.97
2019-03-26T11:32:00.214Z,11.09
2019-03-26T11:34:04.733Z,11.13
2019-03-26T11:36:09.129Z,11.21
2019-03-26T11:38:13.436Z,11.24
2019-03-26T11:40:18.921Z,11.22
2019-03-26T11:42:23.294Z,11.12
2019-03-26T11:44:27.593Z,11.06
2019-03-26T11:46:31.986Z,10.93
2019-03-26T11:48:37.389Z,10.83
2019-03-26T11:50:41.830Z,10.72
2019-03-26T11:52:46.269Z,10.60
2019-03-26T11:54:50.604Z,10.49
2019-03-26T11:56:54.992Z,10.48
2019-03-26T11:58:59.358Z,10.50
2019-03-26T12:01:04.289Z,10.50
2019-03-26T12:03:08.726Z,10.54
2019-03-26T12:05:13.450Z,10.49
2019-03-26T12:07:17.851Z,10.52
2019-03-26T12:09:22.341Z,10.50
2019-03-26T12:11:26.676Z,10.40
2019-03-26T12:13:33.020Z,10.36
2019-03-26T12:15:37.411Z,10.28
2019-03-26T12:17:41.762Z,10.32
2019-03-26T12:19:46.068Z,10.39
2019-03-26T12:21:51.654Z,10.47
2019-03-26T12:23:56.051Z,10.50
2019-03-26T12:26:00.344Z,10.47
2019-03-26T12:28:04.748Z,10.39
2019-03-26T12:30:11.235Z,10.38
2019-03-26T12:32:15.638Z,10.30
2019-03-26T12:34:20.036Z,10.18
2019-03-26T12:36:24.469Z,10.10
2019-03-26T12:38:28.792Z,10.10
2019-03-26T12:40:33.125Z,10.13
2019-03-26T12:42:37.445Z,10.11
2019-03-26T12:44:41.740Z,10.13
2019-03-26T12:46:46.050Z,10.14
2019-03-26T12:48:50.429Z,10.32
2019-03-26T12:50:54.858Z,10.60
2019-03-26T12:53:00.228Z,10.75
2019-03-26T12:55:05.693Z,10.87
2019-03-26T12:57:10.051Z,10.97
2019-03-26T12:59:14.448Z,10.99
2019-03-26T13:01:18.974Z,10.96
2019-03-26T13:03:23.259Z,10.91
2019-03-26T13:05:29.780Z,10.85
2019-03-26T13:07:34.119Z,10.81
2019-03-26T13:09:41.678Z,10.91
2019-03-26T13:11:44.612Z,11.02
2019-03-26T13:13:50.949Z,11.15
2019-03-26T13:15:55.279Z,11.26
2019-03-26T13:17:59.654Z,11.20
2019-03-26T13:20:04.385Z,11.18
2019-03-26T13:22:08.749Z,11.14
2019-03-26T13:24:13.187Z,11.16
2019-03-26T13:26:18.484Z,11.42
2019-03-26T13:28:22.811Z,11.94
2019-03-26T13:30:29.163Z,12.11
2019-03-26T13:32:33.477Z,12.06
2019-03-26T13:34:37.815Z,12.04
2019-03-26T13:36:43.204Z,11.99
2019-03-26T13:38:47.540Z,11.88
2019-03-26T13:40:51.912Z,11.74
2019-03-26T13:42:56.428Z,11.65
2019-03-26T13:45:00.880Z,11.43
2019-03-26T13:47:05.396Z,11.30
2019-03-26T13:49:09.889Z,11.27
2019-03-26T13:51:16.551Z,11.30
2019-03-26T13:53:22.674Z,11.32
2019-03-26T13:55:28.100Z,11.29
2019-03-26T13:57:32.564Z,11.29
2019-03-26T13:59:37.883Z,11.39
2019-03-26T14:01:42.271Z,11.42
2019-03-26T14:03:46.734Z,11.44
2019-03-26T14:05:51.150Z,11.44
2019-03-26T14:07:55.608Z,11.36
2019-03-26T14:09:59.952Z,11.26
2019-03-26T14:12:04.268Z,11.17
2019-03-26T14:14:09.767Z,11.11
2019-03-26T14:16:14.120Z,10.99
2019-03-26T14:18:18.463Z,10.94
2019-03-26T14:20:22.928Z,11.05
2019-03-26T14:22:27.344Z,11.10
2019-03-26T14:24:32.740Z,11.08
2019-03-26T14:26:39.102Z,11.08
2019-03-26T14:28:43.874Z,11.08
2019-03-26T14:30:48.386Z,11.04
2019-03-26T14:32:52.800Z,10.96
2019-03-26T14:34:57.230Z,10.82
2019-03-26T14:37:01.568Z,10.70
2019-03-26T14:39:09.227Z,10.84
2019-03-26T14:41:13.587Z,10.93
2019-03-26T14:43:17.962Z,11.00
2019-03-26T14:45:22.539Z,10.99
2019-03-26T14:47:26.925Z,10.94
2019-03-26T14:49:31.246Z,10.93
2019-03-26T14:51:35.566Z,10.90
2019-03-26T14:53:39.967Z,10.89
2019-03-26T14:55:44.299Z,10.86
2019-03-26T14:57:48.604Z,10.81
2019-03-26T14:59:52.945Z,10.80
2019-03-26T15:01:59.357Z,10.80
2019-03-26T15:04:03.822Z,10.84
2019-03-26T15:06:08.165Z,10.90
2019-03-26T15:08:12.549Z,10.95
2019-03-26T15:10:17.163Z,11.05
2019-03-26T15:12:21.558Z,11.03
2019-03-26T15:14:25.903Z,10.85
2019-03-26T15:16:30.224Z,10.75
2019-03-26T15:18:34.621Z,10.71
2019-03-26T15:20:38.944Z,10.62
2019-03-26T15:22:43.352Z,10.49
2019-03-26T15:24:47.751Z,10.43
2019-03-26T15:26:52.238Z,10.50
2019-03-26T15:29:02.361Z,10.46
2019-03-26T15:31:10.825Z,10.31
2019-03-26T15:33:15.125Z,10.28
2019-03-26T15:35:19.676Z,10.26
2019-03-26T15:37:24.099Z,10.26
2019-03-26T15:39:28.459Z,10.24
2019-03-26T15:41:32.748Z,10.20
2019-03-26T15:43:37.085Z,10.19
2019-03-26T15:45:41.464Z,10.09
2019-03-26T15:47:45.840Z,10.03
2019-03-26T15:49:50.305Z,10.00
2019-03-26T15:51:54.630Z,9.89
2019-03-26T15:53:58.981Z,9.85
2019-03-26T15:56:03.343Z,9.73
2019-03-26T15:58:07.832Z,9.63
2019-03-26T16:00:12.611Z,9.58
2019-03-26T16:02:16.947Z,9.57
2019-03-26T16:04:21.218Z,9.52
2019-03-26T16:06:25.566Z,9.48
2019-03-26T16:08:29.869Z,9.44
2019-03-26T16:10:36.408Z,9.38
2019-03-26T16:12:41.577Z,9.30
2019-03-26T16:14:46.991Z,9.24
2019-03-26T16:16:51.399Z,9.23
2019-03-26T16:18:55.810Z,9.21
2019-03-26T16:21:00.163Z,9.17
2019-03-26T16:23:07.701Z,9.14
2019-03-26T16:25:12.205Z,9.12
2019-03-26T16:27:16.621Z,9.10
2019-03-26T16:29:21.062Z,9.10
2019-03-26T16:31:25.410Z,9.06
2019-03-26T16:33:30.748Z,9.03
2019-03-26T16:35:35.142Z,8.99
2019-03-26T16:37:39.488Z,8.97
2019-03-26T16:39:43.809Z,8.92
2019-03-26T16:41:49.540Z,8.89
2019-03-26T16:43:53.978Z,8.86
2019-03-26T16:45:58.288Z,8.85
2019-03-26T16:48:02.685Z,8.85
2019-03-26T16:50:07.595Z,8.87
2019-03-26T16:52:12.045Z,8.84
2019-03-26T16:54:16.491Z,8.85
2019-03-26T16:56:21.053Z,8.83
2019-03-26T16:58:25.422Z,8.81
2019-03-26T17:00:34.956Z,8.85
2019-03-26T17:02:39.480Z,8.81
2019-03-26T17:04:47.018Z,8.76
2019-03-26T17:06:51.375Z,8.72
2019-03-26T17:08:55.676Z,8.69
2019-03-26T17:10:59.988Z,8.69
2019-03-26T17:13:05.630Z,8.67
2019-03-26T17:15:10.110Z,8.64
2019-03-26T17:17:14.492Z,8.64
2019-03-26T17:19:20.913Z,8.63
2019-03-26T17:21:25.259Z,8.63
2019-03-26T17:23:30.644Z,8.63
2019-03-26T17:25:35.916Z,8.59
2019-03-26T17:27:41.356Z,8.63
2019-03-26T17:29:45.715Z,8.64
2019-03-26T17:31:49.999Z,8.62
2019-03-26T17:33:55.345Z,8.58
2019-03-26T17:36:00.678Z,8.56
2019-03-26T17:38:05.094Z,8.59
2019-03-26T17:40:09.583Z,8.62
2019-03-26T17:42:17.492Z,8.55
2019-03-26T17:44:21.036Z,8.50
2019-03-26T17:46:27.386Z,8.46
2019-03-26T17:48:32.767Z,8.44
2019-03-26T17:50:37.143Z,8.41
2019-03-26T17:52:41.454Z,8.38
2019-03-26T17:54:45.827Z,8.34
2019-03-26T17:56:50.283Z,8.34
2019-03-26T17:58:54.610Z,8.29
2019-03-26T18:00:59.130Z,8.26
2019-03-26T18:03:03.545Z,8.28
2019-03-26T18:05:20.729Z,8.32
2019-03-26T18:07:25.127Z,8.33
2019-03-26T18:09:29.592Z,8.33
2019-03-26T18:11:34.001Z,8.28
2019-03-26T18:13:39.393Z,8.24
2019-03-26T18:15:43.775Z,8.21
2019-03-26T18:17:49.151Z,8.21
2019-03-26T18:19:53.504Z,8.21
2019-03-26T18:21:57.904Z,8.20
2019-03-26T18:24:02.359Z,8.19
2019-03-26T18:26:06.729Z,8.16
2019-03-26T18:28:11.075Z,8.17
2019-03-26T18:30:16.086Z,8.17
2019-03-26T18:32:20.467Z,8.16
2019-03-26T18:34:24.885Z,8.15
2019-03-26T18:36:29.201Z,8.13
2019-03-26T18:38:34.494Z,8.11
2019-03-26T18:40:40.912Z,8.09
2019-03-26T18:42:45.362Z,8.09
2019-03-26T18:44:49.725Z,8.09
2019-03-26T18:46:55.124Z,8.08
2019-03-26T18:48:59.454Z,8.06
2019-03-26T18:51:04.804Z,8.05
2019-03-26T18:53:09.199Z,8.03
2019-03-26T18:55:13.715Z,8.01
2019-03-26T18:57:18.060Z,7.99
2019-03-26T18:59:24.409Z,7.98
2019-03-26T19:01:28.770Z,7.95
2019-03-26T19:03:33.231Z,7.92
2019-03-26T19:05:37.726Z,7.90
2019-03-26T19:07:42.114Z,7.87
2019-03-26T19:09:46.457Z,7.83
2019-03-26T19:11:50.819Z,7.81
2019-03-26T19:13:55.134Z,7.80
2019-03-26T19:15:59.417Z,7.79
2019-03-26T19:18:03.932Z,7.77
2019-03-26T19:20:08.689Z,7.75
2019-03-26T19:22:13.006Z,7.73
2019-03-26T19:24:19.359Z,7.71
2019-03-26T19:26:23.903Z,7.71
2019-03-26T19:28:28.274Z,7.70
2019-03-26T19:30:32.685Z,7.66
2019-03-26T19:35:23.932Z,7.61
2019-03-26T19:37:28.253Z,7.57
2019-03-26T19:39:32.565Z,7.55
2019-03-26T19:41:36.902Z,7.53
2019-03-26T19:43:41.202Z,7.49
2019-03-26T19:45:47.560Z,7.46
2019-03-26T19:47:51.877Z,7.45
2019-03-26T19:49:57.230Z,7.44
2019-03-26T19:52:01.597Z,7.43
2019-03-26T19:54:06.016Z,7.43
2019-03-26T19:56:10.531Z,7.43
2019-03-26T19:58:14.898Z,7.43
2019-03-26T20:00:20.338Z,7.43
2019-03-26T20:02:24.683Z,7.44
2019-03-26T20:04:31.120Z,7.45
2019-03-26T20:06:35.515Z,7.45
2019-03-26T20:08:39.820Z,7.42
2019-03-26T20:10:44.142Z,7.42
2019-03-26T20:12:48.564Z,7.43
2019-03-26T20:14:53.934Z,7.43
2019-03-26T20:16:58.261Z,7.43
2019-03-26T20:19:04.617Z,7.42
2019-03-26T20:21:08.997Z,7.41
2019-03-26T20:23:13.473Z,7.40
2019-03-26T20:25:17.906Z,7.38
2019-03-26T20:27:22.260Z,7.37
2019-03-26T20:29:26.575Z,7.36
2019-03-26T20:31:32.933Z,7.34
2019-03-26T20:33:37.260Z,7.33
2019-03-26T20:35:41.562Z,7.32
2019-03-26T20:37:45.928Z,7.30
2019-03-26T20:39:50.304Z,7.29
2019-03-26T20:41:54.705Z,7.27
2019-03-26T20:43:59.114Z,7.26
2019-03-26T20:46:03.452Z,7.26
2019-03-26T20:48:08.783Z,7.26
2019-03-26T20:50:14.945Z,7.28
2019-03-26T20:52:19.449Z,7.27
2019-03-26T20:54:24.790Z,7.26
2019-03-26T20:56:29.778Z,7.25
2019-03-26T20:58:34.524Z,7.24
2019-03-26T21:00:41.068Z,7.25
2019-03-26T21:02:45.519Z,7.25
2019-03-26T21:04:49.856Z,7.25
2019-03-26T21:06:54.200Z,7.26
2019-03-26T21:08:58.489Z,7.28
2019-03-26T21:11:06.517Z,7.27
2019-03-26T21:13:10.898Z,7.27
2019-03-26T21:15:16.442Z,7.28
2019-03-26T21:17:20.850Z,7.28
2019-03-26T21:19:25.198Z,7.29
2019-03-26T21:21:30.540Z,7.31
2019-03-26T21:23:34.893Z,7.33
2019-03-26T21:25:39.276Z,7.36
2019-03-26T21:27:43.575Z,7.37
2019-03-26T21:29:47.894Z,7.39
2019-03-26T21:31:52.293Z,7.41
2019-03-26T21:33:56.703Z,7.43
2019-03-26T21:36:01.127Z,7.44
2019-03-26T21:38:06.586Z,7.45
2019-03-26T21:40:11.818Z,7.47
2019-03-26T21:42:17.244Z,7.49
2019-03-26T21:44:21.670Z,7.49
2019-03-26T21:46:25.986Z,7.51
2019-03-26T21:48:31.421Z,7.51
2019-03-26T21:50:35.895Z,7.52
2019-03-26T21:52:40.256Z,7.54
2019-03-26T21:54:45.702Z,7.51
2019-03-26T21:56:50.008Z,7.50
2019-03-26T21:58:54.370Z,7.48
2019-03-26T22:00:58.677Z,7.47
2019-03-26T22:03:04.097Z,7.48
2019-03-26T22:05:09.216Z,7.46
2019-03-26T22:07:13.702Z,7.45
2019-03-26T22:09:17.994Z,7.45
2019-03-26T22:11:22.368Z,7.45
2019-03-26T22:13:26.702Z,7.47
2019-03-26T22:15:31.111Z,7.46
2019-03-26T22:17:35.582Z,7.44
2019-03-26T22:19:40.153Z,7.42
2019-03-26T22:21:45.599Z,7.37
2019-03-26T22:23:49.986Z,7.32
2019-03-26T22:25:54.463Z,7.31
2019-03-26T22:27:58.836Z,7.32
2019-03-26T22:30:03.372Z,7.32
2019-03-26T22:32:07.765Z,7.30
2019-03-26T22:34:12.103Z,7.28
2019-03-26T22:36:17.438Z,7.28
2019-03-26T22:38:22.786Z,7.27
2019-03-26T22:40:27.296Z,7.30
2019-03-26T22:42:32.640Z,7.33
2019-03-26T22:44:36.956Z,7.30
2019-03-26T22:46:42.379Z,7.26
2019-03-26T22:48:47.731Z,7.22
2019-03-26T22:50:52.048Z,7.20
2019-03-26T22:52:56.424Z,7.15
2019-03-26T22:55:00.784Z,7.10
2019-03-26T22:57:05.175Z,7.08
2019-03-26T22:59:09.610Z,7.08
2019-03-26T23:01:14.097Z,7.08
2019-03-26T23:03:19.472Z,7.07
2019-03-26T23:05:23.863Z,7.03
2019-03-26T23:07:28.208Z,7.06
2019-03-26T23:09:32.509Z,7.09
2019-03-26T23:11:36.908Z,7.08
2019-03-26T23:13:41.247Z,7.06
2019-03-26T23:15:45.699Z,7.04
2019-03-26T23:17:50.164Z,7.02
2019-03-26T23:19:54.528Z,7.01
2019-03-26T23:21:58.842Z,6.99
2019-03-26T23:24:03.155Z,6.95
2019-03-26T23:26:08.583Z,6.92
2019-03-26T23:28:12.863Z,6.90
2019-03-26T23:30:17.829Z,6.88
2019-03-26T23:32:22.198Z,6.86
2019-03-26T23:34:26.620Z,6.83
2019-03-26T23:36:31.018Z,6.81
2019-03-26T23:38:35.416Z,6.81
2019-03-26T23:40:39.786Z,6.84
2019-03-26T23:42:44.296Z,6.84
2019-03-26T23:44:58.250Z,6.86
2019-03-26T23:46:54.721Z,6.85
2019-03-26T23:48:59.045Z,6.88
2019-03-26T23:51:04.567Z,6.90
2019-03-26T23:53:08.874Z,6.95
2019-03-26T23:55:13.694Z,7.01
2019-03-26T23:57:18.093Z,7.08
2019-03-26T23:59:22.400Z,7.12
